Time;durP1;ratioP1;P1;durP2;ratioP2;P2;SDS_P1;SDS_P2;PMS_P1;PMS_P2;Temp;Humidity;BMP_temperature;BMP_pressure;BME280_temperature;BME280_humidity;BME280_pressure;Samples;Min_cycle;Max_cycle;Signal;HPM_P1;HPM_P2
2022/04/27 00:00:39;;;;;;;36.50;23.98;;;;;;;;;;5057734;28;20210;-68
2022/04/27 00:03:06;;;;;;;35.10;24.88;;;;;;;;;;5057348;28;20550;-69
2022/04/27 00:05:33;;;;;;;38.92;25.63;;;;;;;;;;5057193;28;20286;-68
2022/04/27 00:08:01;;;;;;;38.10;25.13;;;;;;;;;;5057375;28;20200;-68
2022/04/27 00:10:28;;;;;;;35.95;26.23;;;;;;;;;;5057623;28;20611;-68
2022/04/27 00:12:55;;;;;;;38.78;25.92;;;;;;;;;;5057123;28;20210;-68
2022/04/27 00:15:25;;;;;;;36.17;25.58;;;;;;;;;;5057241;28;20215;-68
2022/04/27 00:17:52;;;;;;;39.47;25.40;;;;;;;;;;5057342;28;20310;-68
2022/04/27 00:20:19;;;;;;;36.70;26.15;;;;;;;;;;5056944;28;20204;-68
2022/04/27 00:22:46;;;;;;;38.15;26.05;;;;;;;;;;5057151;28;20223;-68
2022/04/27 00:25:13;;;;;;;35.72;26.02;;;;;;;;;;5056970;28;20568;-68
2022/04/27 00:27:40;;;;;;;38.28;25.15;;;;;;;;;;5056857;28;20228;-67
2022/04/27 00:30:08;;;;;;;36.83;25.77;;;;;;;;;;5057002;28;20200;-68
2022/04/27 00:32:36;;;;;;;35.53;24.73;;;;;;;;;;5056630;28;20207;-68
2022/04/27 00:35:05;;;;;;;35.47;25.27;;;;;;;;;;5056746;28;20200;-69
2022/04/27 00:37:33;;;;;;;36.25;25.10;;;;;;;;;;5057027;28;20204;-69
2022/04/27 00:40:00;;;;;;;39.75;26.13;;;;;;;;;;5057549;28;20279;-69
2022/04/27 00:42:27;;;;;;;35.55;26.10;;;;;;;;;;5056717;28;20224;-69
2022/04/27 00:44:54;;;;;;;37.92;25.02;;;;;;;;;;5056534;28;20196;-69
2022/04/27 00:47:21;;;;;;;35.72;25.42;;;;;;;;;;5056427;28;20223;-68
2022/04/27 00:49:50;;;;;;;35.25;26.38;;;;;;;;;;5056517;28;20223;-68
2022/04/27 00:52:18;;;;;;;36.38;25.52;;;;;;;;;;5056415;28;20250;-69
2022/04/27 00:54:51;;;;;;;39.35;25.80;;;;;;;;;;5055547;28;20211;-68
2022/04/27 00:57:25;;;;;;;36.33;26.52;;;;;;;;;;5056609;28;20212;-69
2022/04/27 00:59:53;;;;;;;39.17;26.25;;;;;;;;;;5055520;28;20203;-68
2022/04/27 01:02:21;;;;;;;33.28;25.75;;;;;;;;;;5055475;28;20202;-69
2022/04/27 01:04:48;;;;;;;37.88;27.00;;;;;;;;;;5056395;28;20279;-68
2022/04/27 01:07:16;;;;;;;37.78;26.48;;;;;;;;;;5055473;28;20269;-69
2022/04/27 01:09:43;;;;;;;39.08;26.20;;;;;;;;;;5055513;28;20285;-68
2022/04/27 01:12:10;;;;;;;37.90;26.23;;;;;;;;;;5055389;28;20211;-68
2022/04/27 01:14:53;;;;;;;38.63;26.33;;;;;;;;;;5088813;28;20200;-69
2022/04/27 01:17:23;;;;;;;39.80;26.75;;;;;;;;;;5054968;28;20206;-68
2022/04/27 01:19:52;;;;;;;39.13;26.70;;;;;;;;;;5055183;28;20204;-68
2022/04/27 01:22:20;;;;;;;36.80;25.83;;;;;;;;;;5055756;28;20200;-69
2022/04/27 01:24:50;;;;;;;38.90;27.17;;;;;;;;;;5088511;28;20196;-68
2022/04/27 01:27:17;;;;;;;40.95;27.58;;;;;;;;;;5054904;28;20200;-69
2022/04/27 01:29:45;;;;;;;37.30;26.38;;;;;;;;;;5055975;28;20215;-69
2022/04/27 01:32:15;;;;;;;40.45;27.50;;;;;;;;;;5054888;28;20211;-69
2022/04/27 01:34:42;;;;;;;39.53;27.23;;;;;;;;;;5055761;28;20250;-70
2022/04/27 01:39:55;;;;;;;41.22;28.13;;;;;;;;;;5055526;28;20207;-69
2022/04/27 01:42:22;;;;;;;35.17;25.63;;;;;;;;;;5055441;28;20204;-69
2022/04/27 01:44:49;;;;;;;40.25;27.98;;;;;;;;;;5054769;28;20713;-69
2022/04/27 01:47:16;;;;;;;39.47;27.15;;;;;;;;;;5054603;28;20556;-66
2022/04/27 01:49:44;;;;;;;39.67;27.40;;;;;;;;;;5055386;28;20231;-66
2022/04/27 01:54:57;;;;;;;37.83;26.80;;;;;;;;;;5054333;28;20200;-65
2022/04/27 01:57:25;;;;;;;37.88;26.55;;;;;;;;;;5054287;28;20207;-67
2022/04/27 01:59:54;;;;;;;41.72;27.20;;;;;;;;;;5054200;28;20690;-71
2022/04/27 02:02:23;;;;;;;39.13;26.08;;;;;;;;;;5055215;28;20191;-69
2022/04/27 02:04:53;;;;;;;36.05;25.52;;;;;;;;;;5054563;28;20226;-68
2022/04/27 02:07:20;;;;;;;37.17;25.05;;;;;;;;;;5055249;28;20200;-68
2022/04/27 02:09:49;;;;;;;38.80;27.05;;;;;;;;;;5054358;28;20208;-68
2022/04/27 02:12:17;;;;;;;37.55;26.27;;;;;;;;;;5054233;28;20200;-69
2022/04/27 02:14:49;;;;;;;38.92;26.73;;;;;;;;;;5054180;28;20289;-68
2022/04/27 02:17:17;;;;;;;38.22;25.80;;;;;;;;;;5054049;28;20207;-69
2022/04/27 02:19:46;;;;;;;37.00;26.23;;;;;;;;;;5054258;28;20283;-66
2022/04/27 02:22:13;;;;;;;35.75;25.80;;;;;;;;;;5054217;28;20204;-68
2022/04/27 02:24:41;;;;;;;38.60;26.92;;;;;;;;;;5054121;28;20539;-65
2022/04/27 02:27:08;;;;;;;39.97;27.08;;;;;;;;;;5054236;28;20262;-67
2022/04/27 02:29:36;;;;;;;39.90;26.42;;;;;;;;;;5053983;28;20716;-67
2022/04/27 02:32:15;;;;;;;38.08;26.70;;;;;;;;;;5087957;28;20266;-67
2022/04/27 02:34:42;;;;;;;39.35;26.92;;;;;;;;;;5054633;28;20214;-65
2022/04/27 02:37:10;;;;;;;36.72;26.00;;;;;;;;;;5054818;28;20215;-66
2022/04/27 02:39:40;;;;;;;40.00;27.73;;;;;;;;;;5053954;28;20269;-67
2022/04/27 02:42:07;;;;;;;41.47;27.25;;;;;;;;;;5054497;28;20531;-63
2022/04/27 02:44:35;;;;;;;42.50;29.50;;;;;;;;;;5054489;28;20215;-65
2022/04/27 02:47:04;;;;;;;42.28;27.77;;;;;;;;;;5053561;28;20206;-66
2022/04/27 02:52:17;;;;;;;41.55;28.23;;;;;;;;;;5053380;28;20650;-65
2022/04/27 02:55:05;;;;;;;36.60;27.00;;;;;;;;;;5055189;28;20283;-65
2022/04/27 02:57:33;;;;;;;38.05;26.17;;;;;;;;;;5041263;28;20207;-67
2022/04/27 03:00:01;;;;;;;44.05;26.48;;;;;;;;;;5057418;28;20658;-67
2022/04/27 03:02:28;;;;;;;37.42;25.92;;;;;;;;;;5057299;28;20210;-66
2022/04/27 03:04:57;;;;;;;35.65;26.05;;;;;;;;;;5057939;28;20674;-64
2022/04/27 03:07:25;;;;;;;38.30;26.67;;;;;;;;;;5057517;28;20527;-65
2022/04/27 03:09:52;;;;;;;35.40;26.35;;;;;;;;;;5057246;28;20203;-65
2022/04/27 03:12:20;;;;;;;38.65;26.50;;;;;;;;;;5090131;28;20661;-64
2022/04/27 03:14:47;;;;;;;37.53;26.20;;;;;;;;;;5057230;28;20214;-65
2022/04/27 03:17:15;;;;;;;37.45;26.40;;;;;;;;;;5090680;28;20294;-64
2022/04/27 03:19:42;;;;;;;36.80;26.40;;;;;;;;;;5057028;28;20265;-64
2022/04/27 03:22:13;;;;;;;41.20;27.92;;;;;;;;;;5090745;28;20266;-65
2022/04/27 03:24:40;;;;;;;39.75;28.23;;;;;;;;;;5057163;28;20252;-64
2022/04/27 03:27:17;;;;;;;41.15;30.00;;;;;;;;;;5056945;28;20247;-63
2022/04/27 03:29:46;;;;;;;44.58;31.40;;;;;;;;;;5057032;28;20218;-64
2022/04/27 03:32:14;;;;;;;44.53;30.60;;;;;;;;;;5056762;28;20208;-64
2022/04/27 03:34:48;;;;;;;44.85;30.63;;;;;;;;;;5057107;28;20250;-64
2022/04/27 03:37:15;;;;;;;44.38;30.35;;;;;;;;;;5056869;28;20224;-66
2022/04/27 03:39:42;;;;;;;44.08;30.23;;;;;;;;;;5056667;28;20234;-66
2022/04/27 03:42:20;;;;;;;45.35;31.08;;;;;;;;;;5056625;28;20203;-66
2022/04/27 03:44:53;;;;;;;46.15;31.00;;;;;;;;;;5057026;28;20238;-68
2022/04/27 03:47:26;;;;;;;46.78;31.88;;;;;;;;;;5057107;28;20246;-68
2022/04/27 03:49:55;;;;;;;45.28;32.05;;;;;;;;;;5056835;28;20570;-67
2022/04/27 03:52:22;;;;;;;44.97;31.10;;;;;;;;;;5057739;28;20658;-65
2022/04/27 03:54:50;;;;;;;46.67;30.92;;;;;;;;;;5089923;28;20208;-67
2022/04/27 03:57:18;;;;;;;41.17;29.63;;;;;;;;;;5056576;28;20270;-65
2022/04/27 03:59:46;;;;;;;42.53;30.52;;;;;;;;;;5061173;28;20314;-66
2022/04/27 04:02:14;;;;;;;40.25;29.67;;;;;;;;;;5054019;28;20554;-64
2022/04/27 04:04:42;;;;;;;40.80;29.83;;;;;;;;;;5051271;28;20238;-65
2022/04/27 04:07:12;;;;;;;37.75;27.52;;;;;;;;;;5049646;28;20228;-65
2022/04/27 04:09:47;;;;;;;46.45;31.52;;;;;;;;;;5063002;28;20263;-64
2022/04/27 04:12:15;;;;;;;42.63;29.67;;;;;;;;;;5048809;28;20235;-64
2022/04/27 04:15:14;;;;;;;42.88;28.45;;;;;;;;;;5026178;28;20533;-64
2022/04/27 04:18:07;;;;;;;38.80;28.95;;;;;;;;;;5028170;28;20233;-64
2022/04/27 04:20:44;;;;;;;41.83;30.00;;;;;;;;;;5054030;28;20224;-65
2022/04/27 04:23:26;;;;;;;46.97;31.80;;;;;;;;;;5055260;28;20600;-63
2022/04/27 04:28:49;;;;;;;44.25;30.35;;;;;;;;;;5052857;28;20274;-64
2022/04/27 04:31:17;;;;;;;47.10;32.50;;;;;;;;;;5035130;28;20715;-61
2022/04/27 04:33:45;;;;;;;44.83;31.88;;;;;;;;;;5035684;28;20232;-62
2022/04/27 04:36:12;;;;;;;44.25;31.55;;;;;;;;;;5035159;28;20683;-67
2022/04/27 04:38:41;;;;;;;47.70;32.40;;;;;;;;;;5035076;28;20229;-64
2022/04/27 04:41:12;;;;;;;39.42;30.40;;;;;;;;;;5035209;28;20294;-64
2022/04/27 04:43:47;;;;;;;42.13;30.90;;;;;;;;;;5043657;28;20258;-65
2022/04/27 04:46:16;;;;;;;39.47;28.33;;;;;;;;;;5074817;28;20233;-66
2022/04/27 04:48:50;;;;;;;43.72;28.55;;;;;;;;;;5075484;28;20270;-67
2022/04/27 04:51:34;;;;;;;40.70;29.55;;;;;;;;;;5075300;28;20234;-67
2022/04/27 04:54:21;;;;;;;39.17;28.50;;;;;;;;;;5073792;28;20637;-69
2022/04/27 04:57:09;;;;;;;38.92;28.30;;;;;;;;;;5064843;28;20234;-64
2022/04/27 04:59:45;;;;;;;37.70;27.58;;;;;;;;;;5074216;28;20222;-60
2022/04/27 05:02:21;;;;;;;40.60;27.83;;;;;;;;;;5067964;28;20307;-63
2022/04/27 05:04:51;;;;;;;41.33;27.08;;;;;;;;;;5054104;28;20259;-65
2022/04/27 05:07:38;;;;;;;36.58;26.92;;;;;;;;;;5052377;28;20216;-66
2022/04/27 05:10:18;;;;;;;38.42;28.25;;;;;;;;;;5048854;28;20564;-67
2022/04/27 05:13:04;;;;;;;42.40;28.85;;;;;;;;;;5051131;28;20239;-63
2022/04/27 05:16:10;;;;;;;35.63;26.58;;;;;;;;;;5030602;28;20212;-63
2022/04/27 05:19:00;;;;;;;28.65;21.55;;;;;;;;;;5024288;28;20228;-62
2022/04/27 05:21:40;;;;;;;32.58;22.95;;;;;;;;;;5042721;28;20234;-62
2022/04/27 05:24:17;;;;;;;33.33;23.55;;;;;;;;;;5050996;28;20235;-64
2022/04/27 05:27:03;;;;;;;32.35;22.80;;;;;;;;;;5052565;28;20212;-64
2022/04/27 05:32:43;;;;;;;26.77;19.58;;;;;;;;;;5053415;28;20216;-66
2022/04/27 05:35:30;;;;;;;26.52;20.48;;;;;;;;;;5053454;28;20227;-66
2022/04/27 05:38:18;;;;;;;23.65;18.65;;;;;;;;;;5054431;28;20220;-67
2022/04/27 05:40:56;;;;;;;22.23;16.75;;;;;;;;;;5054859;28;20293;-67
2022/04/27 05:43:53;;;;;;;26.52;16.45;;;;;;;;;;5051221;28;20657;-67
2022/04/27 05:46:55;;;;;;;22.55;17.45;;;;;;;;;;5073651;28;20223;-67
2022/04/27 05:49:26;;;;;;;20.92;16.17;;;;;;;;;;5073608;28;20648;-73
2022/04/27 05:52:14;;;;;;;20.48;15.23;;;;;;;;;;5074332;28;20609;-67
2022/04/27 05:55:13;;;;;;;20.60;16.02;;;;;;;;;;5062401;28;20254;-67
2022/04/27 05:57:52;;;;;;;18.75;15.02;;;;;;;;;;5073507;28;20242;-67
2022/04/27 06:00:38;;;;;;;22.08;15.18;;;;;;;;;;5074559;28;20216;-67
2022/04/27 06:03:25;;;;;;;19.48;14.20;;;;;;;;;;5073588;28;20226;-63
2022/04/27 06:05:56;;;;;;;18.05;13.85;;;;;;;;;;5073605;28;20231;-70
2022/04/27 06:08:24;;;;;;;17.23;13.73;;;;;;;;;;5073108;28;20243;-66
2022/04/27 06:11:03;;;;;;;18.80;13.13;;;;;;;;;;5073442;28;20242;-67
2022/04/27 06:13:42;;;;;;;17.15;13.57;;;;;;;;;;5068597;28;20294;-66
2022/04/27 06:16:27;;;;;;;18.02;12.32;;;;;;;;;;5053150;28;20223;-65
2022/04/27 06:19:03;;;;;;;20.27;13.27;;;;;;;;;;5053463;28;20319;-66
2022/04/27 06:21:32;;;;;;;17.50;13.48;;;;;;;;;;5052891;28;20243;-72
2022/04/27 06:24:04;;;;;;;18.52;14.55;;;;;;;;;;5053619;28;20662;-65
2022/04/27 06:26:33;;;;;;;19.13;13.77;;;;;;;;;;5052709;28;20243;-67
2022/04/27 06:29:01;;;;;;;16.42;12.68;;;;;;;;;;5053918;28;20696;-66
2022/04/27 06:31:30;;;;;;;20.17;13.55;;;;;;;;;;5052511;28;20223;-66
2022/04/27 06:34:02;;;;;;;18.65;14.38;;;;;;;;;;5053398;28;20678;-65
2022/04/27 06:36:29;;;;;;;17.48;13.48;;;;;;;;;;5052571;28;21072;-64
2022/04/27 06:38:59;;;;;;;19.30;13.13;;;;;;;;;;5053347;28;20223;-62
2022/04/27 06:41:32;;;;;;;18.23;14.75;;;;;;;;;;5053212;28;20277;-62
2022/04/27 06:44:17;;;;;;;19.75;14.02;;;;;;;;;;5063045;28;20240;-62
2022/04/27 06:47:03;;;;;;;19.85;14.25;;;;;;;;;;5074076;28;20222;-61
2022/04/27 06:49:49;;;;;;;19.15;14.00;;;;;;;;;;5073834;28;20231;-56
2022/04/27 06:52:42;;;;;;;18.52;13.77;;;;;;;;;;5072700;28;20226;-62
2022/04/27 06:55:28;;;;;;;20.05;14.48;;;;;;;;;;5073806;28;20227;-56
2022/04/27 06:58:13;;;;;;;17.25;13.25;;;;;;;;;;5073099;28;20223;-62
2022/04/27 07:00:44;;;;;;;17.63;12.63;;;;;;;;;;5073053;28;20224;-62
2022/04/27 07:03:17;;;;;;;18.90;13.63;;;;;;;;;;5073515;28;20243;-62
2022/04/27 07:05:45;;;;;;;18.38;14.27;;;;;;;;;;5073765;28;20665;-63
2022/04/27 07:08:12;;;;;;;18.35;13.98;;;;;;;;;;5056407;28;20249;-66
2022/04/27 07:10:39;;;;;;;18.23;12.98;;;;;;;;;;5073604;28;20692;-65
2022/04/27 07:13:06;;;;;;;19.88;13.60;;;;;;;;;;5073195;28;20224;-64
2022/04/27 07:15:33;;;;;;;16.08;12.27;;;;;;;;;;5053449;28;20223;-61
2022/04/27 07:18:01;;;;;;;17.80;12.48;;;;;;;;;;5053822;28;20244;-62
2022/04/27 07:20:28;;;;;;;14.95;11.65;;;;;;;;;;5053298;28;20694;-61
2022/04/27 07:22:55;;;;;;;15.80;12.27;;;;;;;;;;5053635;28;20264;-61
2022/04/27 07:25:22;;;;;;;16.45;12.48;;;;;;;;;;5053081;28;20289;-66
2022/04/27 07:27:49;;;;;;;13.68;11.75;;;;;;;;;;5053074;28;20297;-60
2022/04/27 07:30:16;;;;;;;17.20;12.30;;;;;;;;;;5053219;28;20749;-60
2022/04/27 07:32:45;;;;;;;13.13;10.45;;;;;;;;;;5053306;28;20224;-62
2022/04/27 07:35:13;;;;;;;16.55;11.60;;;;;;;;;;5053296;28;20231;-62
2022/04/27 07:37:40;;;;;;;14.60;11.07;;;;;;;;;;5053417;28;20228;-62
2022/04/27 07:40:13;;;;;;;16.20;12.50;;;;;;;;;;5053362;28;20611;-64
2022/04/27 07:42:40;;;;;;;16.52;12.70;;;;;;;;;;5055294;28;20224;-63
2022/04/27 07:45:07;;;;;;;17.85;12.82;;;;;;;;;;5073130;28;20243;-62
2022/04/27 07:47:42;;;;;;;17.25;11.13;;;;;;;;;;5077014;28;20581;-62
2022/04/27 07:50:11;;;;;;;16.05;11.80;;;;;;;;;;5077207;28;20229;-60
2022/04/27 07:52:38;;;;;;;10.30;7.15;;;;;;;;;;5076667;28;20234;-61
2022/04/27 07:55:07;;;;;;;15.30;10.18;;;;;;;;;;5076899;28;20219;-60
2022/04/27 07:57:34;;;;;;;7.72;6.15;;;;;;;;;;5076121;28;20556;-61
2022/04/27 08:00:05;;;;;;;11.10;8.43;;;;;;;;;;5076775;28;20220;-59
2022/04/27 08:02:38;;;;;;;12.25;9.50;;;;;;;;;;5076556;28;20676;-75
2022/04/27 08:05:06;;;;;;;13.80;9.27;;;;;;;;;;5076939;28;20242;-60
2022/04/27 08:07:44;;;;;;;11.70;9.15;;;;;;;;;;5075282;28;20238;-58
2022/04/27 08:10:16;;;;;;;11.60;8.75;;;;;;;;;;5076491;28;20218;-61
2022/04/27 08:12:46;;;;;;;13.63;8.40;;;;;;;;;;5076071;28;20223;-61
2022/04/27 08:15:15;;;;;;;11.30;7.75;;;;;;;;;;5059085;28;20228;-60
2022/04/27 08:17:53;;;;;;;10.05;7.75;;;;;;;;;;5056241;28;20228;-63
2022/04/27 08:23:11;;;;;;;14.32;8.77;;;;;;;;;;5056210;28;20267;-63
2022/04/27 08:25:47;;;;;;;11.77;8.65;;;;;;;;;;5055978;28;20278;-61
2022/04/27 08:28:16;;;;;;;11.05;8.65;;;;;;;;;;5056170;28;20273;-63
2022/04/27 08:30:44;;;;;;;12.02;8.40;;;;;;;;;;5056263;28;20765;-61
2022/04/27 08:33:13;;;;;;;9.70;7.65;;;;;;;;;;5056201;28;20224;-62
2022/04/27 08:35:41;;;;;;;9.38;7.38;;;;;;;;;;5055119;28;20305;-67
2022/04/27 08:38:09;;;;;;;10.68;6.57;;;;;;;;;;5056159;28;20232;-64
2022/04/27 08:40:39;;;;;;;7.15;5.40;;;;;;;;;;5055513;28;20224;-59
2022/04/27 08:43:06;;;;;;;8.77;6.00;;;;;;;;;;5072603;28;20314;-61
2022/04/27 08:45:33;;;;;;;9.05;6.28;;;;;;;;;;5075626;28;20227;-61
2022/04/27 08:48:01;;;;;;;9.48;6.35;;;;;;;;;;5076378;28;20226;-61
2022/04/27 08:50:28;;;;;;;10.02;6.72;;;;;;;;;;5076831;28;20274;-63
2022/04/27 08:52:56;;;;;;;8.07;6.18;;;;;;;;;;5076484;28;20264;-62
2022/04/27 08:55:27;;;;;;;8.48;6.40;;;;;;;;;;5076283;28;20262;-61
2022/04/27 08:58:08;;;;;;;11.32;6.28;;;;;;;;;;5076683;28;20258;-61
2022/04/27 09:00:56;;;;;;;8.38;5.70;;;;;;;;;;5076275;28;20667;-61
2022/04/27 09:03:26;;;;;;;7.75;5.07;;;;;;;;;;5076487;28;20270;-61
2022/04/27 09:06:02;;;;;;;9.77;5.70;;;;;;;;;;5076538;28;20207;-61
2022/04/27 09:08:40;;;;;;;6.32;4.97;;;;;;;;;;5076723;28;20211;-61
2022/04/27 09:11:21;;;;;;;6.75;5.45;;;;;;;;;;5076321;28;20199;-61
2022/04/27 09:13:50;;;;;;;6.13;4.85;;;;;;;;;;5076069;28;20213;-61
2022/04/27 09:16:19;;;;;;;7.22;5.45;;;;;;;;;;5076150;28;20238;-61
2022/04/27 09:22:11;;;;;;;6.82;4.25;;;;;;;;;;5075938;28;20219;-54
2022/04/27 09:24:52;;;;;;;4.90;3.85;;;;;;;;;;5034415;28;20262;-60
2022/04/27 09:27:22;;;;;;;5.72;4.30;;;;;;;;;;5034449;28;20205;-61
2022/04/27 09:29:56;;;;;;;6.60;4.45;;;;;;;;;;5034251;28;20212;-61
2022/04/27 09:32:24;;;;;;;7.82;3.90;;;;;;;;;;5034379;28;20211;-62
2022/04/27 09:34:52;;;;;;;6.68;2.90;;;;;;;;;;5033948;28;20217;-63
2022/04/27 09:37:27;;;;;;;5.85;3.10;;;;;;;;;;5034142;28;20635;-61
2022/04/27 09:40:05;;;;;;;5.50;3.35;;;;;;;;;;5034107;28;20204;-61
2022/04/27 09:42:34;;;;;;;4.15;3.35;;;;;;;;;;5034311;28;20204;-63
2022/04/27 09:45:23;;;;;;;4.95;2.88;;;;;;;;;;5033988;28;20204;-62
2022/04/27 09:48:03;;;;;;;5.30;3.60;;;;;;;;;;5034265;28;20213;-62
2022/04/27 09:50:48;;;;;;;5.88;2.53;;;;;;;;;;5034317;28;20219;-62
2022/04/27 09:53:15;;;;;;;5.95;3.00;;;;;;;;;;5033883;28;20231;-63
2022/04/27 09:55:52;;;;;;;10.80;3.40;;;;;;;;;;5059611;28;20222;-64
2022/04/27 09:58:19;;;;;;;3.63;2.92;;;;;;;;;;5075304;28;20221;-63
2022/04/27 10:00:50;;;;;;;5.00;2.80;;;;;;;;;;5075231;28;20207;-63
2022/04/27 10:03:18;;;;;;;3.92;2.53;;;;;;;;;;5075120;28;20218;-63
2022/04/27 10:05:47;;;;;;;5.65;2.72;;;;;;;;;;5074692;28;20535;-63
2022/04/27 10:08:14;;;;;;;5.50;2.58;;;;;;;;;;5075563;28;20235;-62
2022/04/27 10:10:44;;;;;;;5.95;2.90;;;;;;;;;;5074952;28;20703;-63
2022/04/27 10:13:13;;;;;;;3.90;3.13;;;;;;;;;;5075664;28;20187;-64
2022/04/27 10:15:45;;;;;;;4.00;2.97;;;;;;;;;;5074991;28;20657;-64
2022/04/27 10:18:16;;;;;;;3.42;2.58;;;;;;;;;;5075103;28;20235;-63
2022/04/27 10:20:45;;;;;;;6.80;3.03;;;;;;;;;;5073979;28;20265;-60
2022/04/27 10:23:15;;;;;;;4.75;3.15;;;;;;;;;;5073976;28;20232;-64
2022/04/27 10:25:43;;;;;;;5.18;2.85;;;;;;;;;;5075309;28;20210;-63
2022/04/27 10:28:22;;;;;;;6.00;3.20;;;;;;;;;;5074347;28;20198;-64
2022/04/27 10:30:50;;;;;;;5.82;3.17;;;;;;;;;;5073890;28;20202;-62
2022/04/27 10:33:42;;;;;;;6.68;2.97;;;;;;;;;;5075053;28;20230;-62
2022/04/27 10:36:22;;;;;;;5.13;3.17;;;;;;;;;;5074839;28;20231;-62
2022/04/27 10:39:14;;;;;;;4.15;2.90;;;;;;;;;;5074715;28;20199;-62
2022/04/27 10:41:47;;;;;;;6.30;2.85;;;;;;;;;;5075376;28;20199;-62
2022/04/27 10:44:15;;;;;;;3.97;2.45;;;;;;;;;;5075135;28;20195;-62
2022/04/27 10:46:44;;;;;;;4.88;2.95;;;;;;;;;;5065246;28;20235;-67
2022/04/27 10:49:25;;;;;;;4.57;2.92;;;;;;;;;;5066975;28;20316;-61
2022/04/27 10:52:04;;;;;;;4.93;2.70;;;;;;;;;;5044535;28;20231;-63
2022/04/27 10:54:33;;;;;;;3.72;2.67;;;;;;;;;;5053625;28;20236;-65
2022/04/27 10:57:15;;;;;;;3.88;2.67;;;;;;;;;;5059966;28;20595;-64
2022/04/27 10:59:50;;;;;;;3.50;2.53;;;;;;;;;;5073674;28;20699;-65
2022/04/27 11:02:37;;;;;;;4.93;2.78;;;;;;;;;;5072968;28;20223;-63
2022/04/27 11:05:19;;;;;;;3.30;2.38;;;;;;;;;;5054027;28;20277;-62
2022/04/27 11:08:11;;;;;;;5.38;2.90;;;;;;;;;;5054561;28;20712;-63
2022/04/27 11:10:38;;;;;;;5.00;2.58;;;;;;;;;;5054207;28;20591;-62
2022/04/27 11:13:08;;;;;;;4.28;2.55;;;;;;;;;;5054297;28;20204;-62
2022/04/27 11:15:35;;;;;;;5.35;3.53;;;;;;;;;;5054945;28;20646;-62
2022/04/27 11:18:04;;;;;;;4.25;3.33;;;;;;;;;;5058526;28;20258;-62
2022/04/27 11:20:32;;;;;;;5.28;3.17;;;;;;;;;;5058185;28;20204;-62
2022/04/27 11:23:03;;;;;;;7.45;3.60;;;;;;;;;;5058251;28;20208;-62
2022/04/27 11:25:32;;;;;;;4.60;2.72;;;;;;;;;;5058202;28;20211;-62
2022/04/27 11:27:59;;;;;;;7.38;2.95;;;;;;;;;;5058838;28;20218;-62
2022/04/27 11:30:28;;;;;;;4.65;2.58;;;;;;;;;;5057993;28;20195;-62
2022/04/27 11:32:56;;;;;;;6.43;3.28;;;;;;;;;;5058263;28;20537;-62
2022/04/27 11:35:25;;;;;;;4.20;2.70;;;;;;;;;;5058072;28;20223;-62
2022/04/27 11:37:54;;;;;;;5.97;2.88;;;;;;;;;;5057899;28;20618;-62
2022/04/27 11:40:25;;;;;;;4.72;2.65;;;;;;;;;;5058465;28;20234;-62
2022/04/27 11:42:53;;;;;;;4.20;2.83;;;;;;;;;;5058304;28;20192;-62
2022/04/27 11:45:22;;;;;;;4.13;2.40;;;;;;;;;;5057857;28;20277;-62
2022/04/27 11:47:58;;;;;;;3.50;2.88;;;;;;;;;;5055918;28;20204;-68
2022/04/27 11:50:29;;;;;;;5.55;3.08;;;;;;;;;;5055507;28;20603;-59
2022/04/27 11:53:02;;;;;;;6.60;2.90;;;;;;;;;;5056164;28;20191;-60
2022/04/27 11:55:32;;;;;;;4.82;2.80;;;;;;;;;;5054935;28;20671;-60
2022/04/27 11:58:01;;;;;;;4.30;2.45;;;;;;;;;;5056530;28;20303;-59
2022/04/27 12:00:30;;;;;;;5.20;2.60;;;;;;;;;;5055807;28;20194;-63
2022/04/27 12:03:04;;;;;;;3.30;2.40;;;;;;;;;;5049147;28;20223;-68
2022/04/27 12:05:34;;;;;;;14.43;8.00;;;;;;;;;;5055554;28;20234;-64
2022/04/27 12:08:07;;;;;;;6.25;3.85;;;;;;;;;;5057082;27;20236;-65
2022/04/27 12:10:40;;;;;;;3.72;2.75;;;;;;;;;;5054848;28;20224;-64
2022/04/27 12:13:10;;;;;;;4.47;3.78;;;;;;;;;;5054492;28;20570;-65
2022/04/27 12:15:39;;;;;;;3.20;2.53;;;;;;;;;;5052717;28;20650;-64
2022/04/27 12:18:28;;;;;;;3.72;2.58;;;;;;;;;;5053534;28;20262;-64
2022/04/27 12:20:56;;;;;;;5.53;3.22;;;;;;;;;;5054525;28;20220;-66
2022/04/27 12:23:30;;;;;;;3.95;2.50;;;;;;;;;;5056372;28;20659;-65
2022/04/27 12:25:59;;;;;;;3.38;2.42;;;;;;;;;;5056447;28;20224;-65
2022/04/27 12:28:41;;;;;;;3.08;2.30;;;;;;;;;;5055624;28;20696;-64
2022/04/27 12:31:09;;;;;;;3.83;2.85;;;;;;;;;;5055986;28;20220;-64
2022/04/27 12:33:42;;;;;;;3.15;2.38;;;;;;;;;;5055793;28;20682;-64
2022/04/27 12:38:58;;;;;;;2.88;2.30;;;;;;;;;;5047858;28;20215;-65
2022/04/27 12:41:29;;;;;;;4.35;2.72;;;;;;;;;;5065445;28;20211;-64
2022/04/27 12:44:06;;;;;;;4.32;2.10;;;;;;;;;;5071180;28;20547;-65
2022/04/27 12:47:15;;;;;;;2.58;2.08;;;;;;;;;;5076630;28;20218;-64
2022/04/27 12:49:42;;;;;;;6.53;2.33;;;;;;;;;;5057666;28;20692;-64
2022/04/27 12:52:16;;;;;;;2.85;2.30;;;;;;;;;;5058057;28;20243;-65
2022/04/27 12:54:44;;;;;;;5.25;2.20;;;;;;;;;;5075679;28;20281;-64
2022/04/27 12:57:13;;;;;;;3.33;2.30;;;;;;;;;;5075746;28;20243;-64
2022/04/27 12:59:56;;;;;;;3.28;2.20;;;;;;;;;;5075566;28;20223;-65
2022/04/27 13:02:26;;;;;;;3.22;2.20;;;;;;;;;;5075763;28;20628;-63
2022/04/27 13:04:53;;;;;;;3.55;2.47;;;;;;;;;;5066038;28;20235;-64
2022/04/27 13:07:21;;;;;;;3.80;2.30;;;;;;;;;;5055738;28;20286;-65
2022/04/27 13:12:35;;;;;;;4.32;1.95;;;;;;;;;;5055782;28;20224;-64
2022/04/27 13:15:03;;;;;;;4.47;2.60;;;;;;;;;;5055100;28;20235;-63
2022/04/27 13:17:31;;;;;;;3.95;2.53;;;;;;;;;;5055003;28;20235;-66
2022/04/27 13:19:58;;;;;;;5.78;2.80;;;;;;;;;;5054779;28;20262;-66
2022/04/27 13:22:25;;;;;;;3.50;2.42;;;;;;;;;;5055429;28;20231;-67
2022/04/27 13:24:57;;;;;;;5.22;2.42;;;;;;;;;;5055156;28;20321;-67
2022/04/27 13:27:25;;;;;;;5.22;2.70;;;;;;;;;;5055039;28;20557;-67
2022/04/27 13:29:54;;;;;;;2.55;1.85;;;;;;;;;;5055005;28;20220;-65
2022/04/27 13:32:23;;;;;;;7.50;2.30;;;;;;;;;;5055090;28;20232;-64
2022/04/27 13:34:51;;;;;;;4.18;2.33;;;;;;;;;;5062510;28;20230;-65
2022/04/27 13:37:24;;;;;;;4.32;2.13;;;;;;;;;;5075082;28;20281;-61
2022/04/27 13:39:57;;;;;;;4.40;2.70;;;;;;;;;;5073844;28;20223;-62
2022/04/27 13:42:24;;;;;;;3.03;1.70;;;;;;;;;;5074741;28;20258;-70
2022/04/27 13:44:52;;;;;;;4.32;2.75;;;;;;;;;;5064347;28;20297;-64
2022/04/27 13:47:20;;;;;;;3.33;2.50;;;;;;;;;;5045425;28;20219;-65
2022/04/27 13:49:48;;;;;;;3.55;2.88;;;;;;;;;;5053515;28;20251;-64
2022/04/27 13:52:35;;;;;;;3.50;2.55;;;;;;;;;;5052958;28;20319;-66
2022/04/27 13:55:03;;;;;;;3.80;2.28;;;;;;;;;;5054550;28;20227;-60
2022/04/27 13:57:30;;;;;;;2.65;2.20;;;;;;;;;;5054428;28;20267;-66
2022/04/27 13:59:57;;;;;;;5.07;2.42;;;;;;;;;;5054877;28;20652;-62
2022/04/27 14:02:24;;;;;;;5.95;2.47;;;;;;;;;;5054265;28;20674;-66
2022/04/27 14:04:55;;;;;;;3.83;1.98;;;;;;;;;;5054254;28;20223;-63
2022/04/27 14:07:22;;;;;;;3.70;2.50;;;;;;;;;;5054360;28;20262;-70
2022/04/27 14:09:49;;;;;;;3.67;2.50;;;;;;;;;;5054518;28;20235;-62
2022/04/27 14:15:02;;;;;;;6.40;2.33;;;;;;;;;;5053916;28;20224;-65
2022/04/27 14:20:16;;;;;;;3.13;2.40;;;;;;;;;;5053818;28;20249;-62
2022/04/27 14:22:46;;;;;;;3.80;2.40;;;;;;;;;;5054091;28;20224;-63
2022/04/27 14:25:13;;;;;;;3.33;1.98;;;;;;;;;;5053369;28;20888;-63
2022/04/27 14:27:40;;;;;;;5.18;2.50;;;;;;;;;;5052682;28;20362;-63
2022/04/27 14:30:10;;;;;;;3.05;2.08;;;;;;;;;;5053792;28;20227;-62
2022/04/27 14:32:38;;;;;;;3.95;2.40;;;;;;;;;;5053787;28;20731;-66
2022/04/27 14:35:06;;;;;;;4.55;2.20;;;;;;;;;;5064027;28;20227;-61
2022/04/27 14:37:34;;;;;;;3.58;2.30;;;;;;;;;;5073758;28;20380;-63
2022/04/27 14:40:01;;;;;;;4.10;2.17;;;;;;;;;;5065150;28;20231;-63
2022/04/27 14:42:30;;;;;;;3.78;2.08;;;;;;;;;;5047331;28;20302;-61
2022/04/27 14:44:57;;;;;;;4.03;2.20;;;;;;;;;;5051787;28;20227;-65
2022/04/27 14:47:24;;;;;;;4.70;2.25;;;;;;;;;;5051150;28;20306;-63
2022/04/27 14:49:52;;;;;;;4.10;2.53;;;;;;;;;;5050058;28;20235;-64
2022/04/27 14:52:19;;;;;;;2.35;2.08;;;;;;;;;;5050439;28;20796;-62
2022/04/27 14:54:46;;;;;;;3.25;2.08;;;;;;;;;;5051376;28;20231;-61
2022/04/27 14:57:13;;;;;;;3.28;2.08;;;;;;;;;;5050423;28;20263;-62
2022/04/27 14:59:41;;;;;;;4.75;2.05;;;;;;;;;;5050495;28;20563;-61
2022/04/27 15:02:12;;;;;;;4.47;1.70;;;;;;;;;;5049558;28;20222;-62
2022/04/27 15:04:40;;;;;;;4.80;2.30;;;;;;;;;;5053725;28;20234;-61
2022/04/27 15:07:07;;;;;;;5.78;2.42;;;;;;;;;;5051980;28;20233;-60
2022/04/27 15:09:34;;;;;;;4.97;2.30;;;;;;;;;;5053536;28;20293;-65
2022/04/27 15:12:03;;;;;;;3.00;2.20;;;;;;;;;;5053176;28;20239;-64
2022/04/27 15:14:30;;;;;;;6.30;3.28;;;;;;;;;;5052159;28;20552;-67
2022/04/27 15:16:59;;;;;;;8.73;2.30;;;;;;;;;;5053203;28;20319;-63
2022/04/27 15:19:26;;;;;;;5.25;2.10;;;;;;;;;;5052913;28;20281;-69
2022/04/27 15:24:39;;;;;;;3.58;2.17;;;;;;;;;;5052704;28;20227;-69
2022/04/27 15:27:08;;;;;;;4.53;2.05;;;;;;;;;;5053218;28;20238;-68
2022/04/27 15:29:36;;;;;;;5.93;1.80;;;;;;;;;;5053691;28;20243;-68